createdAt,value
2018-05-07T00:00:59.462Z,15.00
2018-05-07T00:02:05.218Z,14.97
2018-05-07T00:03:10.986Z,14.93
2018-05-07T00:04:17.557Z,14.91
2018-05-07T00:05:24.088Z,14.86
2018-05-07T00:06:30.614Z,14.83
2018-05-07T00:07:36.363Z,14.81
2018-05-07T00:08:43.452Z,14.83
2018-05-07T00:09:49.261Z,14.83
2018-05-07T00:10:55.083Z,14.80
2018-05-07T00:12:00.617Z,14.79
2018-05-07T00:13:06.379Z,14.78
2018-05-07T00:14:12.136Z,14.79
2018-05-07T00:15:17.932Z,14.75
2018-05-07T00:16:23.762Z,14.71
2018-05-07T00:17:30.276Z,14.70
2018-05-07T00:18:35.462Z,14.68
2018-05-07T00:19:41.243Z,14.61
2018-05-07T00:20:47.057Z,14.61
2018-05-07T00:21:52.818Z,14.61
2018-05-07T00:22:58.581Z,14.60
2018-05-07T00:24:04.581Z,14.60
2018-05-07T00:25:10.359Z,14.58
2018-05-07T00:26:16.149Z,14.59
2018-05-07T00:27:22.472Z,14.55
2018-05-07T00:28:28.244Z,14.53
2018-05-07T00:29:34.833Z,14.51
2018-05-07T00:30:40.746Z,14.50
2018-05-07T00:31:47.290Z,14.49
2018-05-07T00:32:53.075Z,14.46
2018-05-07T00:33:58.827Z,14.44
2018-05-07T00:35:04.285Z,14.44
2018-05-07T00:36:10.242Z,14.42
2018-05-07T00:37:16.020Z,14.39
2018-05-07T00:38:22.543Z,14.39
2018-05-07T00:39:28.074Z,14.36
2018-05-07T00:40:33.835Z,14.33
2018-05-07T00:41:39.620Z,14.30
2018-05-07T00:42:45.403Z,14.28
2018-05-07T00:43:51.185Z,14.28
2018-05-07T00:44:57.711Z,14.26
2018-05-07T00:46:03.514Z,14.22
2018-05-07T00:47:10.043Z,14.23
2018-05-07T00:48:16.604Z,14.20
2018-05-07T00:49:23.133Z,14.19
2018-05-07T00:50:28.902Z,14.16
2018-05-07T00:51:35.492Z,14.17
2018-05-07T00:52:41.247Z,14.19
2018-05-07T00:53:47.041Z,14.20
2018-05-07T00:55:10.509Z,14.20
2018-05-07T00:56:17.043Z,14.17
2018-05-07T00:57:22.803Z,14.18
2018-05-07T00:58:29.334Z,14.17
2018-05-07T00:59:35.126Z,14.19
2018-05-07T01:00:40.879Z,14.14
2018-05-07T01:01:46.419Z,14.14
2018-05-07T01:02:52.184Z,14.12
2018-05-07T01:03:57.945Z,14.14
2018-05-07T01:05:03.741Z,14.13
2018-05-07T01:06:09.507Z,14.12
2018-05-07T01:07:15.274Z,14.10
2018-05-07T01:08:21.820Z,14.06
2018-05-07T01:09:27.596Z,14.05
2018-05-07T01:10:34.176Z,14.04
2018-05-07T01:11:39.935Z,14.04
2018-05-07T01:12:45.781Z,14.03
2018-05-07T01:13:51.694Z,13.99
2018-05-07T01:14:57.489Z,13.97
2018-05-07T01:16:03.464Z,13.97
2018-05-07T01:17:09.224Z,13.99
2018-05-07T01:18:15.753Z,13.97
2018-05-07T01:19:21.509Z,13.96
2018-05-07T01:20:27.273Z,13.97
2018-05-07T01:21:33.826Z,13.95
2018-05-07T01:22:40.348Z,13.92
2018-05-07T01:23:46.109Z,13.92
2018-05-07T01:24:51.879Z,13.92
2018-05-07T01:25:58.176Z,13.90
2018-05-07T01:27:03.965Z,13.89
2018-05-07T01:28:10.491Z,13.84
2018-05-07T01:29:16.252Z,13.81
2018-05-07T01:30:22.036Z,13.79
2018-05-07T01:31:27.805Z,13.79
2018-05-07T01:32:33.625Z,13.80
2018-05-07T01:33:39.388Z,13.80
2018-05-07T01:34:45.146Z,13.80
2018-05-07T01:35:50.916Z,13.77
2018-05-07T01:36:57.453Z,13.74
2018-05-07T01:38:03.241Z,13.73
2018-05-07T01:39:09.016Z,13.74
2018-05-07T01:40:14.812Z,13.72
2018-05-07T01:41:20.572Z,13.70
2018-05-07T01:42:26.107Z,13.68
2018-05-07T01:43:31.907Z,13.62
2018-05-07T01:44:37.683Z,13.61
2018-05-07T01:45:43.449Z,13.58
2018-05-07T01:46:49.008Z,13.57
2018-05-07T01:47:54.771Z,13.54
2018-05-07T01:49:00.555Z,13.50
2018-05-07T01:50:06.319Z,13.47
2018-05-07T01:51:12.095Z,13.50
2018-05-07T01:52:17.844Z,13.47
2018-05-07T01:53:24.361Z,13.47
2018-05-07T01:54:30.140Z,13.46
2018-05-07T01:55:37.412Z,13.44
2018-05-07T01:56:43.171Z,13.42
2018-05-07T01:57:49.705Z,13.42
2018-05-07T01:58:55.454Z,13.42
2018-05-07T02:00:01.240Z,13.42
2018-05-07T02:01:06.995Z,13.42
2018-05-07T02:02:12.762Z,13.39
2018-05-07T02:03:18.520Z,13.37
2018-05-07T02:04:24.288Z,13.33
2018-05-07T02:05:30.100Z,13.35
2018-05-07T02:06:35.859Z,13.32
2018-05-07T02:07:41.634Z,13.31
2018-05-07T02:08:47.399Z,13.27
2018-05-07T02:09:53.163Z,13.29
2018-05-07T02:10:58.972Z,13.26
2018-05-07T02:12:04.743Z,13.26
2018-05-07T02:13:10.506Z,13.22
2018-05-07T02:14:16.267Z,13.23
2018-05-07T02:15:22.793Z,13.23
2018-05-07T02:16:28.567Z,13.21
2018-05-07T02:17:34.318Z,13.21
2018-05-07T02:18:40.083Z,13.18
2018-05-07T02:19:45.846Z,13.18
2018-05-07T02:20:51.624Z,13.18
2018-05-07T02:21:58.177Z,13.17
2018-05-07T02:23:04.123Z,13.16
2018-05-07T02:24:09.916Z,13.13
2018-05-07T02:25:15.667Z,13.11
2018-05-07T02:26:21.447Z,13.13
2018-05-07T02:27:27.228Z,13.14
2018-05-07T02:28:32.875Z,13.14
2018-05-07T02:29:38.623Z,13.15
2018-05-07T02:30:44.388Z,13.15
2018-05-07T02:31:50.155Z,13.15
2018-05-07T02:32:55.936Z,13.14
2018-05-07T02:34:01.703Z,13.15
2018-05-07T02:35:07.470Z,13.11
2018-05-07T02:36:13.007Z,13.08
2018-05-07T02:37:18.762Z,13.05
2018-05-07T02:38:25.303Z,13.03
2018-05-07T02:39:31.070Z,13.02
2018-05-07T02:40:37.591Z,12.99
2018-05-07T02:41:43.366Z,12.99
2018-05-07T02:42:49.895Z,12.99
2018-05-07T02:43:55.675Z,12.98
2018-05-07T02:45:01.428Z,12.98
2018-05-07T02:46:07.190Z,12.96
2018-05-07T02:47:12.954Z,12.92
2018-05-07T02:48:18.840Z,12.92
2018-05-07T02:49:25.410Z,12.90
2018-05-07T02:50:31.937Z,12.84
2018-05-07T02:51:37.695Z,12.81
2018-05-07T02:52:44.223Z,12.77
2018-05-07T02:53:50.891Z,12.75
2018-05-07T02:54:56.681Z,12.74
2018-05-07T02:56:02.448Z,12.73
2018-05-07T02:57:07.871Z,12.69
2018-05-07T02:58:13.645Z,12.69
2018-05-07T02:59:19.398Z,12.63
2018-05-07T03:00:25.181Z,12.65
2018-05-07T03:01:30.940Z,12.65
2018-05-07T03:02:36.729Z,12.64
2018-05-07T03:03:42.475Z,12.64
2018-05-07T03:04:48.239Z,12.62
2018-05-07T03:05:54.792Z,12.60
2018-05-07T03:07:01.322Z,12.61
2018-05-07T03:08:07.091Z,12.60
2018-05-07T03:09:13.621Z,12.58
2018-05-07T03:10:19.383Z,12.61
2018-05-07T03:11:25.159Z,12.61
2018-05-07T03:12:30.939Z,12.61
2018-05-07T03:13:36.892Z,12.62
2018-05-07T03:14:43.424Z,12.61
2018-05-07T03:15:49.178Z,12.62
2018-05-07T03:16:54.959Z,12.59
2018-05-07T03:18:00.728Z,12.59
2018-05-07T03:19:06.522Z,12.56
2018-05-07T03:20:12.279Z,12.56
2018-05-07T03:21:18.040Z,12.54
2018-05-07T03:22:24.585Z,12.50
2018-05-07T03:23:31.131Z,12.45
2018-05-07T03:24:36.888Z,12.42
2018-05-07T03:25:42.643Z,12.40
2018-05-07T03:26:48.834Z,12.39
2018-05-07T03:27:54.635Z,12.38
2018-05-07T03:29:01.147Z,12.38
2018-05-07T03:30:06.911Z,12.38
2018-05-07T03:31:12.663Z,12.39
2018-05-07T03:32:18.427Z,12.40
2018-05-07T03:33:24.995Z,12.42
2018-05-07T03:34:31.557Z,12.40
2018-05-07T03:35:37.308Z,12.40
2018-05-07T03:36:43.062Z,12.38
2018-05-07T03:37:48.826Z,12.37
2018-05-07T03:38:54.714Z,12.36
2018-05-07T03:40:01.246Z,12.40
2018-05-07T03:41:07.004Z,12.38
2018-05-07T03:42:13.523Z,12.38
2018-05-07T03:43:20.047Z,12.40
2018-05-07T03:44:25.824Z,12.40
2018-05-07T03:45:31.587Z,12.37
2018-05-07T03:46:37.888Z,12.41
2018-05-07T03:47:43.651Z,12.40
2018-05-07T03:48:49.409Z,12.38
2018-05-07T03:49:55.189Z,12.35
2018-05-07T03:51:01.484Z,12.38
2018-05-07T03:52:07.256Z,12.39
2018-05-07T03:53:13.051Z,12.35
2018-05-07T03:54:18.803Z,12.36
2018-05-07T03:55:24.598Z,12.31
2018-05-07T03:56:31.122Z,12.31
2018-05-07T03:57:36.879Z,12.29
2018-05-07T03:58:42.644Z,12.33
2018-05-07T03:59:49.210Z,12.31
2018-05-07T04:00:55.176Z,12.33
2018-05-07T04:02:00.650Z,12.35
2018-05-07T04:03:06.407Z,12.37
2018-05-07T04:04:12.177Z,12.40
2018-05-07T04:05:18.700Z,12.39
2018-05-07T04:06:24.475Z,12.37
2018-05-07T04:07:30.132Z,12.34
2018-05-07T04:08:36.663Z,12.38
2018-05-07T04:09:42.427Z,12.41
2018-05-07T04:10:48.965Z,12.46
2018-05-07T04:11:54.738Z,12.47
2018-05-07T04:13:01.034Z,12.47
2018-05-07T04:14:06.798Z,12.48
2018-05-07T04:15:12.564Z,12.49
2018-05-07T04:16:36.080Z,12.49
2018-05-07T04:17:58.854Z,12.51
2018-05-07T04:19:22.384Z,12.52
2018-05-07T04:20:44.996Z,12.50
2018-05-07T04:22:07.653Z,12.46
2018-05-07T04:23:30.204Z,12.44
2018-05-07T04:24:36.151Z,12.41
2018-05-07T04:25:41.913Z,12.43
2018-05-07T04:26:48.439Z,12.46
2018-05-07T04:27:54.344Z,12.48
2018-05-07T04:29:00.236Z,12.46
2018-05-07T04:30:05.110Z,12.49
2018-05-07T04:31:10.897Z,12.50
2018-05-07T04:32:16.680Z,12.53
2018-05-07T04:33:23.308Z,12.56
2018-05-07T04:34:29.100Z,12.56
2018-05-07T04:35:34.857Z,12.59
2018-05-07T04:36:40.395Z,12.61
2018-05-07T04:37:46.154Z,12.62
2018-05-07T04:38:51.952Z,12.63
2018-05-07T04:39:58.524Z,12.62
2018-05-07T04:41:04.307Z,12.63
2018-05-07T04:42:10.083Z,12.64
2018-05-07T04:43:16.644Z,12.67
2018-05-07T04:44:22.586Z,12.68
2018-05-07T04:45:29.147Z,12.70
2018-05-07T04:46:35.701Z,12.69
2018-05-07T04:47:41.451Z,12.70
2018-05-07T04:48:47.992Z,12.70
2018-05-07T04:49:53.959Z,12.70
2018-05-07T04:51:00.509Z,12.77
2018-05-07T04:52:07.035Z,12.76
2018-05-07T04:53:13.053Z,12.83
2018-05-07T04:54:20.151Z,12.86
2018-05-07T04:55:25.919Z,12.86
2018-05-07T04:56:31.711Z,12.86
2018-05-07T04:57:37.477Z,12.85
2018-05-07T04:58:43.002Z,12.84
2018-05-07T04:59:48.760Z,12.88
2018-05-07T05:00:54.532Z,12.86
2018-05-07T05:02:00.105Z,12.88
2018-05-07T05:03:05.863Z,12.90
2018-05-07T05:04:11.635Z,12.89
2018-05-07T05:05:17.388Z,12.91
2018-05-07T05:06:23.903Z,12.92
2018-05-07T05:07:29.682Z,12.94
2018-05-07T05:08:35.434Z,12.99
2018-05-07T05:09:41.967Z,13.01
2018-05-07T05:10:47.725Z,13.05
2018-05-07T05:11:53.492Z,13.04
2018-05-07T05:13:00.027Z,13.00
2018-05-07T05:14:05.795Z,13.05
2018-05-07T05:15:12.366Z,13.07
2018-05-07T05:16:18.890Z,13.09
2018-05-07T05:17:24.651Z,13.09
2018-05-07T05:18:31.289Z,13.13
2018-05-07T05:19:37.144Z,13.16
2018-05-07T05:20:42.927Z,13.17
2018-05-07T05:21:48.699Z,13.24
2018-05-07T05:22:54.296Z,13.28
2018-05-07T05:24:00.262Z,13.29
2018-05-07T05:25:06.020Z,13.32
2018-05-07T05:26:11.775Z,13.34
2018-05-07T05:27:20.446Z,13.38
2018-05-07T05:28:26.403Z,13.41
2018-05-07T05:29:32.196Z,13.44
2018-05-07T05:30:37.622Z,13.46
2018-05-07T05:31:43.150Z,13.61
2018-05-07T05:32:48.897Z,13.63
2018-05-07T05:33:54.657Z,13.65
2018-05-07T05:35:01.236Z,13.71
2018-05-07T05:36:07.752Z,13.69
2018-05-07T05:37:13.561Z,13.69
2018-05-07T05:38:19.708Z,13.79
2018-05-07T05:39:25.525Z,13.84
2018-05-07T05:40:31.473Z,13.83
2018-05-07T05:41:36.946Z,13.87
2018-05-07T05:42:42.711Z,13.92
2018-05-07T05:43:48.566Z,13.92
2018-05-07T05:44:54.443Z,13.93
2018-05-07T05:46:00.996Z,13.94
2018-05-07T05:47:07.560Z,13.95
2018-05-07T05:48:13.335Z,13.98
2018-05-07T05:49:19.094Z,14.01
2018-05-07T05:50:24.846Z,14.02
2018-05-07T05:51:30.618Z,14.07
2018-05-07T05:52:36.381Z,14.15
2018-05-07T05:53:42.144Z,14.20
2018-05-07T05:54:47.658Z,14.26
2018-05-07T05:55:53.423Z,14.31
2018-05-07T05:56:59.544Z,14.38
2018-05-07T05:58:05.315Z,14.40
2018-05-07T05:59:11.084Z,14.44
2018-05-07T06:00:16.834Z,14.44
2018-05-07T06:01:22.579Z,14.49
2018-05-07T06:02:29.123Z,14.56
2018-05-07T06:03:34.912Z,14.63
2018-05-07T06:04:40.671Z,14.69
2018-05-07T06:05:46.429Z,14.74
2018-05-07T06:06:52.183Z,14.76
2018-05-07T06:07:57.963Z,14.80
2018-05-07T06:09:03.779Z,14.86
2018-05-07T06:10:09.500Z,14.89
2018-05-07T06:11:15.239Z,14.93
2018-05-07T06:12:21.025Z,14.95
2018-05-07T06:13:27.556Z,15.00
2018-05-07T06:14:33.403Z,15.02
2018-05-07T06:15:39.281Z,15.04
2018-05-07T06:16:45.792Z,15.12
2018-05-07T06:17:51.592Z,15.21
2018-05-07T06:18:57.362Z,15.29
2018-05-07T06:20:03.125Z,15.45
2018-05-07T06:21:08.912Z,15.60
2018-05-07T06:22:15.430Z,15.88
2018-05-07T06:23:21.189Z,16.32
2018-05-07T06:24:26.975Z,16.86
2018-05-07T06:25:32.735Z,17.51
2018-05-07T06:26:38.491Z,18.22
2018-05-07T06:27:44.241Z,18.95
2018-05-07T06:28:51.514Z,19.58
2018-05-07T06:29:57.334Z,20.31
2018-05-07T06:31:02.879Z,20.97
2018-05-07T06:32:08.685Z,21.59
2018-05-07T06:33:14.497Z,22.16
2018-05-07T06:34:20.324Z,22.78
2018-05-07T06:35:26.264Z,23.35
2018-05-07T06:36:32.011Z,23.73
2018-05-07T06:37:37.770Z,24.17
2018-05-07T06:38:44.525Z,24.62
2018-05-07T06:39:50.275Z,25.09
2018-05-07T06:40:56.072Z,25.33
2018-05-07T06:42:01.831Z,25.59
2018-05-07T06:43:07.607Z,25.79
2018-05-07T06:44:13.368Z,26.02
2018-05-07T06:45:19.881Z,26.18
2018-05-07T06:46:25.880Z,26.55
2018-05-07T06:47:31.844Z,26.98
2018-05-07T06:48:37.607Z,27.29
2018-05-07T06:49:43.562Z,27.55
2018-05-07T06:50:49.334Z,28.05
2018-05-07T06:51:55.127Z,28.43
2018-05-07T06:53:00.938Z,28.57
2018-05-07T06:54:06.696Z,28.72
2018-05-07T06:55:12.459Z,29.10
2018-05-07T06:56:18.257Z,29.12
2018-05-07T06:57:24.795Z,29.37
2018-05-07T06:58:30.322Z,29.41
2018-05-07T06:59:36.102Z,29.74
2018-05-07T07:00:42.393Z,30.21
2018-05-07T07:01:48.252Z,30.58
2018-05-07T07:02:54.149Z,30.99
2018-05-07T07:04:00.762Z,31.36
2018-05-07T07:05:06.528Z,31.50
2018-05-07T07:06:12.275Z,31.43
2018-05-07T07:07:18.465Z,31.25
2018-05-07T07:08:24.517Z,31.46
2018-05-07T07:09:30.295Z,31.73
2018-05-07T07:10:36.044Z,32.00
2018-05-07T07:11:42.789Z,32.13
2018-05-07T07:12:48.536Z,32.34
2018-05-07T07:13:54.311Z,32.39
2018-05-07T07:15:00.826Z,31.96
2018-05-07T07:16:06.720Z,31.97
2018-05-07T07:17:13.240Z,31.99
2018-05-07T07:18:19.005Z,31.90
2018-05-07T07:19:25.329Z,31.54
2018-05-07T07:20:31.123Z,31.54
2018-05-07T07:21:37.636Z,31.73
2018-05-07T07:22:43.395Z,32.06
2018-05-07T07:23:49.928Z,32.35
2018-05-07T07:24:55.706Z,32.38
2018-05-07T07:26:02.228Z,32.75
2018-05-07T07:27:08.008Z,32.85
2018-05-07T07:28:14.602Z,32.71
2018-05-07T07:29:20.480Z,32.70
2018-05-07T07:30:27.026Z,32.91
2018-05-07T07:31:32.914Z,32.76
2018-05-07T07:32:38.646Z,32.33
2018-05-07T07:33:44.494Z,32.28
2018-05-07T07:34:51.132Z,31.97
2018-05-07T07:35:56.904Z,31.90
2018-05-07T07:37:03.520Z,32.22
2018-05-07T07:38:09.270Z,32.31
2018-05-07T07:39:15.041Z,32.36
2018-05-07T07:40:21.559Z,32.31
2018-05-07T07:41:27.343Z,32.33
2018-05-07T07:42:32.803Z,32.41
2018-05-07T07:43:38.568Z,32.50
2018-05-07T07:44:44.321Z,32.51
2018-05-07T07:45:50.436Z,32.58
2018-05-07T07:46:56.213Z,32.62
2018-05-07T07:48:01.973Z,32.41
2018-05-07T07:49:07.719Z,32.43
2018-05-07T07:50:13.483Z,32.31
2018-05-07T07:51:20.003Z,32.33
2018-05-07T07:52:25.783Z,32.59
2018-05-07T07:53:31.582Z,32.76
2018-05-07T07:54:38.263Z,33.20
2018-05-07T07:55:44.035Z,33.38
2018-05-07T07:56:50.555Z,33.57
2018-05-07T07:57:56.338Z,33.84
2018-05-07T07:59:02.851Z,34.06
2018-05-07T08:00:08.626Z,34.20
2018-05-07T08:01:15.153Z,33.83
2018-05-07T08:02:20.920Z,33.58
2018-05-07T08:03:26.690Z,33.79
2018-05-07T08:04:33.211Z,33.86
2018-05-07T08:05:38.960Z,34.02
2018-05-07T08:06:44.706Z,34.32
2018-05-07T08:07:50.282Z,34.23
2018-05-07T08:08:56.050Z,34.51
2018-05-07T08:10:01.802Z,35.02
2018-05-07T08:11:07.320Z,35.02
2018-05-07T08:12:13.089Z,34.71
2018-05-07T08:13:19.031Z,34.85
2018-05-07T08:14:24.818Z,34.80
2018-05-07T08:15:31.366Z,34.92
2018-05-07T08:16:37.914Z,34.70
2018-05-07T08:17:44.436Z,35.04
2018-05-07T08:18:50.250Z,35.32
2018-05-07T08:19:56.099Z,35.24
2018-05-07T08:21:01.840Z,35.22
2018-05-07T08:22:07.599Z,35.47
2018-05-07T08:23:13.381Z,35.50
2018-05-07T08:24:19.127Z,35.56
2018-05-07T08:25:24.916Z,35.53
2018-05-07T08:26:30.676Z,35.59
2018-05-07T08:27:36.428Z,35.59
2018-05-07T08:28:42.195Z,35.37
2018-05-07T08:29:49.461Z,34.69
2018-05-07T08:30:55.245Z,34.68
2018-05-07T08:32:01.004Z,34.92
2018-05-07T08:33:06.762Z,35.50
2018-05-07T08:34:12.552Z,35.58
2018-05-07T08:35:18.847Z,35.73
2018-05-07T08:36:24.629Z,34.93
2018-05-07T08:37:31.163Z,34.43
2018-05-07T08:38:36.915Z,34.28
2018-05-07T08:39:42.675Z,34.25
2018-05-07T08:40:48.432Z,34.72
2018-05-07T08:41:55.024Z,34.95
2018-05-07T08:43:00.787Z,35.02
2018-05-07T08:44:06.204Z,35.19
2018-05-07T08:45:11.968Z,35.21
2018-05-07T08:46:17.727Z,35.17
2018-05-07T08:47:23.504Z,34.65
2018-05-07T08:48:30.027Z,34.03
2018-05-07T08:49:35.770Z,33.75
2018-05-07T08:50:41.514Z,33.88
2018-05-07T08:51:48.040Z,33.81
2018-05-07T08:52:53.906Z,33.99
2018-05-07T08:53:59.784Z,33.86
2018-05-07T08:55:06.314Z,34.08
2018-05-07T08:56:12.063Z,33.66
2018-05-07T08:57:17.825Z,33.79
2018-05-07T08:58:24.367Z,33.91
2018-05-07T08:59:30.131Z,34.18
2018-05-07T09:00:36.705Z,34.35
2018-05-07T09:01:42.609Z,34.21
2018-05-07T09:02:48.368Z,34.22
2018-05-07T09:03:54.727Z,34.15
2018-05-07T09:05:00.514Z,33.98
2018-05-07T09:06:06.266Z,34.02
2018-05-07T09:07:12.011Z,34.09
2018-05-07T09:08:17.771Z,34.40
2018-05-07T09:09:23.543Z,34.73
2018-05-07T09:10:29.840Z,34.68
2018-05-07T09:11:35.582Z,34.87
2018-05-07T09:12:41.331Z,34.84
2018-05-07T09:13:47.094Z,34.46
2018-05-07T09:14:52.551Z,34.26
2018-05-07T09:15:59.072Z,34.04
2018-05-07T09:17:04.600Z,34.08
2018-05-07T09:18:10.359Z,34.38
2018-05-07T09:19:16.884Z,34.54
2018-05-07T09:20:22.667Z,34.82
2018-05-07T09:21:28.421Z,34.70
2018-05-07T09:22:34.951Z,34.61
2018-05-07T09:23:40.720Z,34.79
2018-05-07T09:24:46.487Z,34.85
2018-05-07T09:25:53.239Z,34.59
2018-05-07T09:26:58.996Z,34.93
2018-05-07T09:28:04.763Z,35.27
2018-05-07T09:29:10.509Z,35.42
2018-05-07T09:30:16.324Z,35.34
2018-05-07T09:31:22.106Z,35.37
2018-05-07T09:32:27.861Z,35.40
2018-05-07T09:33:33.620Z,35.18
2018-05-07T09:34:39.380Z,35.42
2018-05-07T09:35:45.952Z,35.28
2018-05-07T09:36:51.715Z,34.94
2018-05-07T09:37:57.483Z,34.71
2018-05-07T09:39:03.001Z,34.35
2018-05-07T09:40:08.791Z,34.33
2018-05-07T09:41:15.318Z,34.24
2018-05-07T09:42:21.107Z,34.09
2018-05-07T09:43:27.634Z,34.29
2018-05-07T09:44:34.892Z,34.09
2018-05-07T09:45:40.645Z,34.45
2018-05-07T09:46:46.404Z,34.59
2018-05-07T09:47:52.185Z,34.75
2018-05-07T09:48:58.594Z,34.72
2018-05-07T09:50:03.979Z,34.53
2018-05-07T09:51:10.012Z,33.95
2018-05-07T09:52:15.774Z,33.69
2018-05-07T09:53:21.340Z,33.12
2018-05-07T09:54:27.107Z,32.89
2018-05-07T09:55:33.632Z,32.96
2018-05-07T09:56:56.514Z,32.91
2018-05-07T09:58:05.041Z,33.58
2018-05-07T09:59:10.800Z,33.96
2018-05-07T10:00:16.326Z,34.11
2018-05-07T10:01:22.102Z,33.88
2018-05-07T10:02:27.939Z,33.55
2018-05-07T10:03:33.851Z,33.54
2018-05-07T10:04:39.652Z,33.40
2018-05-07T10:05:46.916Z,33.30
2018-05-07T10:06:52.687Z,32.99
2018-05-07T10:07:59.212Z,32.75
2018-05-07T10:09:03.866Z,32.83
2018-05-07T10:10:10.390Z,32.62
2018-05-07T10:11:16.153Z,32.44
2018-05-07T10:12:21.983Z,32.24
2018-05-07T10:13:27.748Z,32.01
2018-05-07T10:14:33.549Z,31.93
2018-05-07T10:15:39.299Z,32.06
2018-05-07T10:16:45.075Z,32.29
2018-05-07T10:17:51.597Z,32.51
2018-05-07T10:18:58.124Z,32.26
2018-05-07T10:20:03.909Z,32.14
2018-05-07T10:21:09.680Z,32.02
2018-05-07T10:22:15.445Z,31.81
2018-05-07T10:23:21.235Z,31.71
2018-05-07T10:24:26.992Z,31.54
2018-05-07T10:25:32.784Z,31.38
2018-05-07T10:26:38.532Z,31.09
2018-05-07T10:27:44.321Z,30.89
2018-05-07T10:28:50.078Z,30.72
2018-05-07T10:29:56.649Z,30.88
2018-05-07T10:31:02.372Z,30.70
2018-05-07T10:32:08.904Z,30.41
2018-05-07T10:33:14.675Z,30.26
2018-05-07T10:34:21.224Z,29.95
2018-05-07T10:35:26.986Z,29.45
2018-05-07T10:36:33.535Z,29.26
2018-05-07T10:37:40.068Z,28.98
2018-05-07T10:38:45.848Z,28.78
2018-05-07T10:39:52.363Z,28.68
2018-05-07T10:40:58.123Z,28.46
2018-05-07T10:42:03.903Z,28.45
2018-05-07T10:43:09.651Z,28.41
2018-05-07T10:44:15.411Z,28.37
2018-05-07T10:45:21.167Z,28.21
2018-05-07T10:46:26.936Z,27.85
2018-05-07T10:47:32.487Z,27.79
2018-05-07T10:48:38.999Z,27.34
2018-05-07T10:49:44.790Z,26.95
2018-05-07T10:50:51.307Z,26.85
2018-05-07T10:51:57.071Z,26.61
2018-05-07T10:53:02.952Z,26.44
2018-05-07T10:54:09.479Z,26.22
2018-05-07T10:55:15.247Z,26.02
2018-05-07T10:56:21.767Z,25.97
2018-05-07T10:57:27.542Z,25.95
2018-05-07T10:58:34.098Z,25.83
2018-05-07T10:59:40.627Z,25.69
2018-05-07T11:00:46.391Z,25.59
2018-05-07T11:01:52.200Z,25.60
2018-05-07T11:02:57.959Z,25.58
2018-05-07T11:04:03.735Z,25.62
2018-05-07T11:05:10.258Z,25.58
2018-05-07T11:06:16.016Z,25.38
2018-05-07T11:07:21.873Z,25.23
2018-05-07T11:08:27.800Z,25.19
2018-05-07T11:09:33.367Z,25.13
2018-05-07T11:10:39.887Z,25.06
2018-05-07T11:11:46.408Z,24.91
2018-05-07T11:12:52.171Z,24.92
2018-05-07T11:13:57.929Z,24.82
2018-05-07T11:15:03.477Z,24.81
2018-05-07T11:16:09.237Z,24.82
2018-05-07T11:17:15.771Z,24.73
2018-05-07T11:18:21.523Z,24.65
2018-05-07T11:19:27.285Z,24.66
2018-05-07T11:20:33.848Z,24.71
2018-05-07T11:21:40.368Z,24.66
2018-05-07T11:22:46.129Z,24.63
2018-05-07T11:23:52.666Z,24.56
2018-05-07T11:24:58.444Z,24.59
2018-05-07T11:26:04.984Z,24.52
2018-05-07T11:27:10.540Z,24.39
2018-05-07T11:28:16.483Z,24.47
2018-05-07T11:29:23.031Z,24.51
2018-05-07T11:30:28.801Z,24.53
2018-05-07T11:31:34.607Z,24.43
2018-05-07T11:32:40.377Z,24.48
2018-05-07T11:33:46.912Z,24.46
2018-05-07T11:34:52.732Z,24.43
2018-05-07T11:35:58.259Z,24.42
2018-05-07T11:37:04.052Z,24.41
2018-05-07T11:38:10.595Z,24.40
2018-05-07T11:39:17.128Z,24.42
2018-05-07T11:40:22.906Z,24.45
2018-05-07T11:41:28.666Z,24.39
2018-05-07T11:42:35.218Z,24.36
2018-05-07T11:43:41.186Z,24.36
2018-05-07T11:44:46.962Z,24.32
2018-05-07T11:45:52.741Z,24.28
2018-05-07T11:46:59.272Z,24.36
2018-05-07T11:48:05.076Z,24.42
2018-05-07T11:49:10.848Z,24.44
2018-05-07T11:50:16.624Z,24.44
2018-05-07T11:51:22.404Z,24.43
2018-05-07T11:52:28.175Z,24.37
2018-05-07T11:53:33.960Z,24.37
2018-05-07T11:54:40.535Z,24.37
2018-05-07T11:55:46.292Z,24.36
2018-05-07T11:56:51.829Z,24.38
2018-05-07T11:57:57.586Z,24.46
2018-05-07T11:59:03.367Z,24.53
2018-05-07T12:00:09.915Z,24.45
2018-05-07T12:01:15.723Z,24.41
2018-05-07T12:02:21.549Z,24.30
2018-05-07T12:03:27.478Z,24.31
2018-05-07T12:04:34.038Z,24.21
2018-05-07T12:05:40.560Z,24.16
2018-05-07T12:06:46.328Z,24.30
2018-05-07T12:07:52.877Z,24.41
2018-05-07T12:08:59.508Z,24.50
2018-05-07T12:10:06.211Z,24.58
2018-05-07T12:11:12.740Z,24.58
2018-05-07T12:12:18.503Z,24.58
2018-05-07T12:13:25.780Z,24.60
2018-05-07T12:14:31.540Z,24.57
2018-05-07T12:15:38.089Z,24.59
2018-05-07T12:16:44.279Z,24.65
2018-05-07T12:17:50.083Z,24.67
2018-05-07T12:18:55.856Z,24.68
2018-05-07T12:20:01.625Z,24.68
2018-05-07T12:21:07.172Z,24.69
2018-05-07T12:22:12.956Z,24.75
2018-05-07T12:23:18.781Z,24.78
2018-05-07T12:24:24.700Z,24.76
2018-05-07T12:25:30.464Z,24.75
2018-05-07T12:26:36.483Z,24.79
2018-05-07T12:27:42.253Z,24.84
2018-05-07T12:28:48.015Z,24.86
2018-05-07T12:29:54.536Z,24.94
2018-05-07T12:31:00.306Z,24.97
2018-05-07T12:32:05.860Z,24.99
2018-05-07T12:33:12.380Z,24.97
2018-05-07T12:34:18.170Z,24.94
2018-05-07T12:35:23.927Z,24.90
2018-05-07T12:36:29.687Z,24.80
2018-05-07T12:37:35.553Z,24.72
2018-05-07T12:38:42.369Z,24.75
2018-05-07T12:39:48.126Z,24.75
2018-05-07T12:40:53.878Z,24.80
2018-05-07T12:41:59.647Z,24.90
2018-05-07T12:43:06.196Z,24.99
2018-05-07T12:44:11.964Z,25.00
2018-05-07T12:45:17.724Z,25.01
2018-05-07T12:46:24.094Z,25.01
2018-05-07T12:47:29.853Z,25.01
2018-05-07T12:48:35.843Z,25.04
2018-05-07T12:49:41.608Z,25.06
2018-05-07T12:50:48.179Z,25.03
2018-05-07T12:51:53.927Z,25.00
2018-05-07T12:52:59.716Z,25.05
2018-05-07T12:54:06.277Z,25.14
2018-05-07T12:55:12.027Z,25.14
2018-05-07T12:56:17.803Z,25.16
2018-05-07T12:57:23.568Z,25.00
2018-05-07T12:58:29.336Z,24.99
2018-05-07T12:59:35.136Z,24.96
2018-05-07T13:00:40.886Z,24.95
2018-05-07T13:01:46.655Z,24.99
2018-05-07T13:02:52.450Z,25.01
2018-05-07T13:03:58.983Z,25.01
2018-05-07T13:05:04.769Z,25.03
2018-05-07T13:06:10.305Z,25.02
2018-05-07T13:07:18.973Z,25.05
2018-05-07T13:08:24.510Z,25.00
2018-05-07T13:09:30.281Z,25.04
2018-05-07T13:10:36.101Z,25.11
2018-05-07T13:11:41.878Z,25.13
2018-05-07T13:12:47.651Z,25.18
2018-05-07T13:13:53.444Z,25.21
2018-05-07T13:14:59.985Z,25.17
2018-05-07T13:16:05.444Z,25.15
2018-05-07T13:17:11.991Z,25.17
2018-05-07T13:18:18.723Z,25.22
2018-05-07T13:19:24.525Z,25.20
2018-05-07T13:20:30.292Z,25.22
2018-05-07T13:21:36.093Z,25.24
2018-05-07T13:22:42.635Z,25.31
2018-05-07T13:23:49.153Z,25.30
2018-05-07T13:24:54.975Z,25.26
2018-05-07T13:26:00.883Z,25.31
2018-05-07T13:27:07.447Z,25.34
2018-05-07T13:28:13.980Z,25.37
2018-05-07T13:29:19.743Z,25.43
2018-05-07T13:30:26.276Z,25.48
2018-05-07T13:31:32.050Z,25.50
2018-05-07T13:32:38.602Z,25.56
2018-05-07T13:33:45.136Z,25.60
2018-05-07T13:34:50.904Z,25.61
2018-05-07T13:35:57.211Z,25.58
2018-05-07T13:37:02.998Z,25.60
2018-05-07T13:38:08.783Z,25.64
2018-05-07T13:39:14.592Z,25.67
2018-05-07T13:40:20.796Z,25.68
2018-05-07T13:41:26.243Z,25.70
2018-05-07T13:42:32.003Z,25.72
2018-05-07T13:43:37.799Z,25.73
2018-05-07T13:44:43.595Z,25.76
2018-05-07T13:45:50.864Z,25.77
2018-05-07T13:46:56.631Z,25.85
2018-05-07T13:48:03.163Z,25.91
2018-05-07T13:49:08.943Z,25.95
2018-05-07T13:50:14.707Z,25.93
2018-05-07T13:51:20.475Z,25.96
2018-05-07T13:52:26.247Z,25.90
2018-05-07T13:53:33.579Z,25.93
2018-05-07T13:54:39.357Z,25.93
2018-05-07T13:55:45.111Z,26.01
2018-05-07T13:56:51.914Z,26.06
2018-05-07T13:57:57.899Z,26.15
2018-05-07T13:59:03.426Z,26.14
2018-05-07T14:00:09.209Z,26.10
2018-05-07T14:01:15.748Z,26.06
2018-05-07T14:02:21.527Z,26.07
2018-05-07T14:03:27.277Z,26.07
2018-05-07T14:04:33.059Z,26.03
2018-05-07T14:05:38.840Z,26.08
2018-05-07T14:06:45.374Z,26.11
2018-05-07T14:07:51.136Z,26.17
2018-05-07T14:08:57.661Z,26.21
2018-05-07T14:10:03.423Z,26.18
2018-05-07T14:11:09.209Z,26.21
2018-05-07T14:12:14.980Z,26.20